NDF4005 EDDF-EDDH
Flight info
| Callsign | NDF4005 |
|---|---|
| Flight time | 0h 48m |
| Altitude | 31000 |
| Route | MARUN3W/25C MARUN Y150 TOLGI DCT SAS/N0441F300 P605 NOLGO NOLGO6A |
| Aircraft | A321/M-SDE3FGHIRWY/LB1 |
Departure
| Time | 2026-05-06 15:31 |
|---|---|
| Airport | Frankfurt Main Airport (EDDF) |
Arrival
| Time | 2026-05-06 16:19 |
|---|---|
| Airport | Hamburg Helmut Schmidt Airport (EDDH) |
| Time | Latitude | Longitude | Altitude | Speed | Heading |
|---|---|---|---|---|---|
| 2026-05-06 14:55 | 50.03862 | 8.54790 | 361 ft | 0 kts | 160° |
| 2026-05-06 15:23 | 50.03857 | 8.54793 | 351 ft | 4 kts | 160° |
| 2026-05-06 15:23 | 50.03808 | 8.54857 | 354 ft | 12 kts | 110° |
| 2026-05-06 15:23 | 50.03820 | 8.54989 | 354 ft | 13 kts | 68° |
| 2026-05-06 15:23 | 50.03842 | 8.55074 | 352 ft | 13 kts | 70° |
| 2026-05-06 15:24 | 50.03874 | 8.55205 | 352 ft | 13 kts | 69° |
| 2026-05-06 15:24 | 50.03922 | 8.55401 | 352 ft | 15 kts | 69° |
| 2026-05-06 15:24 | 50.03947 | 8.55509 | 356 ft | 16 kts | 70° |
| 2026-05-06 15:24 | 50.03999 | 8.55732 | 355 ft | 17 kts | 70° |
| 2026-05-06 15:25 | 50.04038 | 8.55904 | 351 ft | 17 kts | 70° |
| 2026-05-06 15:25 | 50.04077 | 8.56077 | 357 ft | 17 kts | 70° |
| 2026-05-06 15:25 | 50.04105 | 8.56193 | 360 ft | 17 kts | 68° |
| 2026-05-06 15:25 | 50.04148 | 8.56363 | 358 ft | 17 kts | 69° |
| 2026-05-06 15:26 | 50.04189 | 8.56533 | 358 ft | 17 kts | 69° |
| 2026-05-06 15:26 | 50.04240 | 8.56747 | 365 ft | 24 kts | 69° |
| 2026-05-06 15:26 | 50.04298 | 8.56993 | 366 ft | 25 kts | 70° |
| 2026-05-06 15:26 | 50.04356 | 8.57238 | 366 ft | 24 kts | 70° |
| 2026-05-06 15:27 | 50.04415 | 8.57485 | 364 ft | 25 kts | 69° |
| 2026-05-06 15:27 | 50.04475 | 8.57728 | 369 ft | 24 kts | 69° |
| 2026-05-06 15:27 | 50.04531 | 8.57962 | 369 ft | 18 kts | 72° |
| 2026-05-06 15:27 | 50.04576 | 8.58151 | 365 ft | 19 kts | 68° |
| 2026-05-06 15:28 | 50.04621 | 8.58326 | 370 ft | 16 kts | 69° |
| 2026-05-06 15:28 | 50.04653 | 8.58497 | 371 ft | 14 kts | 90° |
| 2026-05-06 15:28 | 50.04605 | 8.58584 | 369 ft | 2 kts | 159° |
| 2026-05-06 15:28 | 50.04599 | 8.58588 | 372 ft | 0 kts | 159° |
| 2026-05-06 15:29 | 50.04598 | 8.58588 | 372 ft | 1 kts | 159° |
| 2026-05-06 15:29 | 50.04546 | 8.58616 | 371 ft | 12 kts | 167° |
| 2026-05-06 15:29 | 50.04478 | 8.58550 | 370 ft | 13 kts | 245° |
| 2026-05-06 15:29 | 50.04473 | 8.58533 | 370 ft | 0 kts | 246° |
| 2026-05-06 15:30 | 50.04459 | 8.58481 | 373 ft | 24 kts | 247° |
| 2026-05-06 15:30 | 50.04303 | 8.57863 | 365 ft | 96 kts | 250° |
| 2026-05-06 15:30 | 50.04012 | 8.56588 | 362 ft | 152 kts | 250° |
| 2026-05-06 15:30 | 50.03617 | 8.54951 | 800 ft | 162 kts | 249° |
| 2026-05-06 15:31 | 50.03195 | 8.53324 | 1514 ft | 163 kts | 249° |
| 2026-05-06 15:31 | 50.02786 | 8.51676 | 2167 ft | 165 kts | 251° |
| 2026-05-06 15:31 | 50.02259 | 8.50007 | 2447 ft | 184 kts | 234° |
| 2026-05-06 15:32 | 49.99936 | 8.47965 | 3226 ft | 206 kts | 190° |
| 2026-05-06 15:32 | 49.98524 | 8.47652 | 3866 ft | 206 kts | 190° |
| 2026-05-06 15:32 | 49.97104 | 8.47336 | 4514 ft | 205 kts | 191° |
| 2026-05-06 15:32 | 49.95708 | 8.46920 | 5052 ft | 206 kts | 199° |
| 2026-05-06 15:33 | 49.94277 | 8.46255 | 5219 ft | 225 kts | 199° |
| 2026-05-06 15:33 | 49.92726 | 8.45488 | 5567 ft | 238 kts | 206° |
| 2026-05-06 15:33 | 49.91418 | 8.43958 | 6194 ft | 238 kts | 232° |
| 2026-05-06 15:33 | 49.90705 | 8.41657 | 6802 ft | 242 kts | 258° |
| 2026-05-06 15:34 | 49.90760 | 8.39042 | 7425 ft | 249 kts | 285° |
| 2026-05-06 15:34 | 49.91638 | 8.36706 | 8110 ft | 258 kts | 313° |
| 2026-05-06 15:34 | 49.93154 | 8.35228 | 8797 ft | 268 kts | 334° |
| 2026-05-06 15:34 | 49.94933 | 8.34047 | 9156 ft | 286 kts | 334° |
| 2026-05-06 15:35 | 49.96794 | 8.32849 | 9769 ft | 292 kts | 335° |
| 2026-05-06 15:35 | 49.98662 | 8.31656 | 10144 ft | 307 kts | 335° |
| 2026-05-06 15:35 | 50.00706 | 8.30341 | 10274 ft | 329 kts | 336° |
| 2026-05-06 15:35 | 50.02971 | 8.29301 | 10401 ft | 350 kts | 348° |
| 2026-05-06 15:36 | 50.05453 | 8.29002 | 10700 ft | 365 kts | 360° |
| 2026-05-06 15:36 | 50.07986 | 8.29523 | 11246 ft | 371 kts | 12° |
| 2026-05-06 15:36 | 50.10457 | 8.30726 | 11846 ft | 374 kts | 17° |
| 2026-05-06 15:36 | 50.12935 | 8.32021 | 12425 ft | 378 kts | 17° |
| 2026-05-06 15:37 | 50.15403 | 8.33315 | 12991 ft | 381 kts | 17° |
| 2026-05-06 15:37 | 50.17924 | 8.34636 | 13600 ft | 384 kts | 17° |
| 2026-05-06 15:37 | 50.20468 | 8.35968 | 14081 ft | 387 kts | 17° |
| 2026-05-06 15:37 | 50.23029 | 8.37312 | 14574 ft | 390 kts | 17° |
| 2026-05-06 15:38 | 50.25611 | 8.38673 | 15022 ft | 394 kts | 18° |
| 2026-05-06 15:38 | 50.28220 | 8.40044 | 15543 ft | 396 kts | 18° |
| 2026-05-06 15:38 | 50.30836 | 8.41426 | 16032 ft | 399 kts | 18° |
| 2026-05-06 15:38 | 50.33475 | 8.42850 | 16510 ft | 403 kts | 18° |
| 2026-05-06 15:39 | 50.36129 | 8.44304 | 16980 ft | 406 kts | 18° |
| 2026-05-06 15:39 | 50.38805 | 8.45779 | 17416 ft | 409 kts | 18° |
| 2026-05-06 15:39 | 50.41460 | 8.47243 | 17853 ft | 412 kts | 18° |
| 2026-05-06 15:39 | 50.44174 | 8.48737 | 18253 ft | 415 kts | 18° |
| 2026-05-06 15:40 | 50.46907 | 8.50238 | 18647 ft | 418 kts | 18° |
| 2026-05-06 15:40 | 50.49667 | 8.51698 | 19053 ft | 419 kts | 17° |
| 2026-05-06 15:40 | 50.52463 | 8.53072 | 19443 ft | 421 kts | 15° |
| 2026-05-06 15:40 | 50.55280 | 8.54389 | 19844 ft | 423 kts | 15° |
| 2026-05-06 15:41 | 50.58114 | 8.55694 | 20211 ft | 427 kts | 14° |
| 2026-05-06 15:41 | 50.60973 | 8.57015 | 20546 ft | 431 kts | 14° |
| 2026-05-06 15:41 | 50.63855 | 8.58365 | 20927 ft | 433 kts | 14° |
| 2026-05-06 15:41 | 50.66747 | 8.59740 | 21302 ft | 435 kts | 14° |
| 2026-05-06 15:42 | 50.69615 | 8.61121 | 21684 ft | 438 kts | 15° |
| 2026-05-06 15:42 | 50.72533 | 8.62534 | 22080 ft | 440 kts | 15° |
| 2026-05-06 15:42 | 50.75466 | 8.63959 | 22463 ft | 442 kts | 14° |
| 2026-05-06 15:42 | 50.78371 | 8.65582 | 22813 ft | 446 kts | 22° |
| 2026-05-06 15:43 | 50.81111 | 8.67944 | 23187 ft | 451 kts | 32° |
| 2026-05-06 15:43 | 50.83593 | 8.71017 | 23516 ft | 455 kts | 42° |
| 2026-05-06 15:43 | 50.85735 | 8.74716 | 23825 ft | 458 kts | 52° |
| 2026-05-06 15:43 | 50.87660 | 8.78738 | 24132 ft | 460 kts | 52° |
| 2026-05-06 15:44 | 50.89595 | 8.82782 | 24444 ft | 462 kts | 53° |
| 2026-05-06 15:44 | 50.91513 | 8.86794 | 24764 ft | 463 kts | 53° |
| 2026-05-06 15:44 | 50.93466 | 8.90875 | 25087 ft | 465 kts | 53° |
| 2026-05-06 15:44 | 50.95423 | 8.94964 | 25399 ft | 467 kts | 53° |
| 2026-05-06 15:45 | 50.97390 | 8.99084 | 25711 ft | 469 kts | 53° |
| 2026-05-06 15:45 | 50.99356 | 9.03216 | 26017 ft | 471 kts | 53° |
| 2026-05-06 15:45 | 51.01338 | 9.07392 | 26267 ft | 475 kts | 53° |
| 2026-05-06 15:45 | 51.03326 | 9.11589 | 26553 ft | 477 kts | 53° |
| 2026-05-06 15:46 | 51.05323 | 9.15815 | 26838 ft | 479 kts | 54° |
| 2026-05-06 15:46 | 51.07380 | 9.20001 | 27126 ft | 481 kts | 49° |
| 2026-05-06 15:46 | 51.09780 | 9.23718 | 27419 ft | 483 kts | 39° |
| 2026-05-06 15:46 | 51.12486 | 9.26770 | 27678 ft | 485 kts | 30° |
| 2026-05-06 15:47 | 51.15506 | 9.29153 | 27904 ft | 485 kts | 20° |
| 2026-05-06 15:47 | 51.18723 | 9.30759 | 28152 ft | 485 kts | 11° |
| 2026-05-06 15:47 | 51.22031 | 9.31895 | 28392 ft | 487 kts | 10° |
| 2026-05-06 15:47 | 51.25344 | 9.33041 | 28619 ft | 489 kts | 10° |
| 2026-05-06 15:48 | 51.28673 | 9.34207 | 28859 ft | 489 kts | 11° |
| 2026-05-06 15:48 | 51.31997 | 9.35377 | 29164 ft | 489 kts | 11° |
| 2026-05-06 15:48 | 51.35321 | 9.36545 | 29448 ft | 489 kts | 11° |
| 2026-05-06 15:48 | 51.38597 | 9.37691 | 29756 ft | 489 kts | 11° |
| 2026-05-06 15:49 | 51.41919 | 9.38848 | 30024 ft | 488 kts | 10° |
| 2026-05-06 15:49 | 51.45230 | 9.40000 | 30353 ft | 485 kts | 11° |
| 2026-05-06 15:49 | 51.48509 | 9.41151 | 30712 ft | 480 kts | 11° |
| 2026-05-06 15:49 | 51.51760 | 9.42297 | 30798 ft | 474 kts | 11° |
| 2026-05-06 15:50 | 51.58129 | 9.44545 | 30811 ft | 467 kts | 11° |
| 2026-05-06 15:50 | 51.64464 | 9.46765 | 30807 ft | 466 kts | 11° |
| 2026-05-06 15:51 | 51.70765 | 9.48981 | 30802 ft | 459 kts | 11° |
| 2026-05-06 15:51 | 51.76930 | 9.51180 | 30807 ft | 457 kts | 11° |
| 2026-05-06 15:52 | 51.83097 | 9.53693 | 30810 ft | 458 kts | 19° |
| 2026-05-06 15:52 | 51.88838 | 9.58161 | 30813 ft | 459 kts | 26° |
| 2026-05-06 15:53 | 51.94528 | 9.62882 | 30814 ft | 460 kts | 26° |
| 2026-05-06 15:53 | 52.00189 | 9.67582 | 30809 ft | 460 kts | 26° |
| 2026-05-06 15:54 | 52.05887 | 9.72328 | 30819 ft | 461 kts | 26° |
| 2026-05-06 15:54 | 52.11588 | 9.77096 | 30817 ft | 461 kts | 26° |
| 2026-05-06 15:55 | 52.17289 | 9.81880 | 30825 ft | 461 kts | 26° |
| 2026-05-06 15:55 | 52.22986 | 9.86665 | 30821 ft | 461 kts | 25° |
| 2026-05-06 15:56 | 52.28951 | 9.90119 | 30823 ft | 458 kts | 13° |
| 2026-05-06 15:56 | 52.32039 | 9.91460 | 30705 ft | 460 kts | 13° |
| 2026-05-06 15:56 | 52.35130 | 9.92812 | 30215 ft | 459 kts | 14° |
| 2026-05-06 15:57 | 52.38194 | 9.94165 | 29699 ft | 456 kts | 14° |
| 2026-05-06 15:57 | 52.41256 | 9.95523 | 29121 ft | 455 kts | 14° |
| 2026-05-06 15:57 | 52.44310 | 9.96879 | 28564 ft | 455 kts | 14° |
| 2026-05-06 15:57 | 52.47361 | 9.98228 | 28002 ft | 453 kts | 14° |
| 2026-05-06 15:58 | 52.50403 | 9.99578 | 27474 ft | 451 kts | 14° |
| 2026-05-06 15:58 | 52.53379 | 10.00904 | 26945 ft | 448 kts | 14° |
| 2026-05-06 15:58 | 52.56375 | 10.02237 | 26407 ft | 445 kts | 14° |
| 2026-05-06 15:58 | 52.59302 | 10.03542 | 25790 ft | 442 kts | 15° |
| 2026-05-06 15:59 | 52.62256 | 10.04862 | 25167 ft | 439 kts | 14° |
| 2026-05-06 15:59 | 52.65198 | 10.06176 | 24560 ft | 436 kts | 14° |
| 2026-05-06 15:59 | 52.68111 | 10.07477 | 23952 ft | 433 kts | 14° |
| 2026-05-06 15:59 | 52.71005 | 10.08774 | 23357 ft | 430 kts | 14° |
| 2026-05-06 16:00 | 52.73876 | 10.10065 | 22730 ft | 426 kts | 14° |
| 2026-05-06 16:00 | 52.76726 | 10.11281 | 22133 ft | 421 kts | 10° |
| 2026-05-06 16:00 | 52.79578 | 10.11852 | 21548 ft | 416 kts | 0° |
| 2026-05-06 16:00 | 52.82459 | 10.11938 | 20984 ft | 413 kts | 0° |
| 2026-05-06 16:01 | 52.85320 | 10.12021 | 20430 ft | 410 kts | 360° |
| 2026-05-06 16:01 | 52.88171 | 10.12112 | 19876 ft | 408 kts | 0° |
| 2026-05-06 16:01 | 52.91001 | 10.12210 | 19330 ft | 405 kts | 0° |
| 2026-05-06 16:01 | 52.93809 | 10.12306 | 18797 ft | 402 kts | 360° |
| 2026-05-06 16:02 | 52.96595 | 10.12398 | 18275 ft | 399 kts | 360° |
| 2026-05-06 16:02 | 52.99359 | 10.12487 | 17702 ft | 397 kts | 360° |
| 2026-05-06 16:02 | 53.02114 | 10.12576 | 17111 ft | 394 kts | 0° |
| 2026-05-06 16:02 | 53.04837 | 10.12669 | 16536 ft | 390 kts | 0° |
| 2026-05-06 16:03 | 53.07506 | 10.12759 | 15981 ft | 386 kts | 0° |
| 2026-05-06 16:03 | 53.10179 | 10.12849 | 15421 ft | 382 kts | 0° |
| 2026-05-06 16:03 | 53.12824 | 10.12939 | 14880 ft | 378 kts | 0° |
| 2026-05-06 16:03 | 53.15445 | 10.13029 | 14346 ft | 376 kts | 360° |
| 2026-05-06 16:04 | 53.18052 | 10.13117 | 13822 ft | 375 kts | 0° |
| 2026-05-06 16:04 | 53.20660 | 10.13204 | 13249 ft | 374 kts | 0° |
| 2026-05-06 16:04 | 53.23250 | 10.13289 | 12664 ft | 372 kts | 0° |
| 2026-05-06 16:04 | 53.25827 | 10.13373 | 12094 ft | 369 kts | 1° |
| 2026-05-06 16:05 | 53.28388 | 10.13459 | 11535 ft | 369 kts | 1° |
| 2026-05-06 16:05 | 53.30948 | 10.13544 | 11053 ft | 366 kts | 1° |
| 2026-05-06 16:05 | 53.33433 | 10.13627 | 10592 ft | 358 kts | 2° |
| 2026-05-06 16:05 | 53.35900 | 10.13687 | 10102 ft | 352 kts | 359° |
| 2026-05-06 16:06 | 53.38292 | 10.13056 | 9609 ft | 349 kts | 345° |
| 2026-05-06 16:06 | 53.40472 | 10.11433 | 9060 ft | 337 kts | 329° |
| 2026-05-06 16:06 | 53.42249 | 10.09072 | 8559 ft | 318 kts | 316° |
| 2026-05-06 16:06 | 53.43690 | 10.06407 | 8026 ft | 300 kts | 313° |
| 2026-05-06 16:07 | 53.45055 | 10.03862 | 7532 ft | 287 kts | 314° |
| 2026-05-06 16:07 | 53.46386 | 10.01402 | 7033 ft | 282 kts | 314° |
| 2026-05-06 16:07 | 53.47591 | 9.98868 | 6543 ft | 278 kts | 298° |
| 2026-05-06 16:07 | 53.48097 | 9.95722 | 6042 ft | 285 kts | 271° |
| 2026-05-06 16:08 | 53.47805 | 9.92461 | 5527 ft | 289 kts | 256° |
| 2026-05-06 16:08 | 53.47274 | 9.89184 | 5018 ft | 292 kts | 255° |
| 2026-05-06 16:08 | 53.46609 | 9.85950 | 4491 ft | 295 kts | 246° |
| 2026-05-06 16:08 | 53.45744 | 9.82819 | 4069 ft | 294 kts | 244° |
| 2026-05-06 16:09 | 53.44877 | 9.79800 | 3991 ft | 280 kts | 244° |
| 2026-05-06 16:09 | 53.44028 | 9.76858 | 3802 ft | 281 kts | 244° |
| 2026-05-06 16:09 | 53.43181 | 9.73903 | 3368 ft | 281 kts | 248° |
| 2026-05-06 16:09 | 53.42817 | 9.70748 | 3032 ft | 274 kts | 277° |
| 2026-05-06 16:10 | 53.43138 | 9.67686 | 2989 ft | 259 kts | 286° |
| 2026-05-06 16:10 | 53.43531 | 9.64874 | 2992 ft | 247 kts | 287° |
| 2026-05-06 16:10 | 53.44039 | 9.62166 | 3019 ft | 237 kts | 296° |
| 2026-05-06 16:10 | 53.44730 | 9.59731 | 2995 ft | 226 kts | 313° |
| 2026-05-06 16:11 | 53.45966 | 9.58404 | 3005 ft | 203 kts | 356° |
| 2026-05-06 16:11 | 53.47184 | 9.58878 | 3004 ft | 171 kts | 43° |
| 2026-05-06 16:11 | 53.47618 | 9.60537 | 3008 ft | 154 kts | 85° |
| 2026-05-06 16:11 | 53.47722 | 9.62327 | 3020 ft | 162 kts | 78° |
| 2026-05-06 16:12 | 53.47925 | 9.64233 | 3014 ft | 168 kts | 77° |
| 2026-05-06 16:12 | 53.48131 | 9.66167 | 3008 ft | 170 kts | 77° |
| 2026-05-06 16:12 | 53.48367 | 9.68081 | 3007 ft | 169 kts | 70° |
| 2026-05-06 16:12 | 53.48867 | 9.69863 | 3008 ft | 169 kts | 58° |
| 2026-05-06 16:13 | 53.49531 | 9.71489 | 3007 ft | 169 kts | 53° |
| 2026-05-06 16:13 | 53.50234 | 9.73003 | 3000 ft | 157 kts | 52° |
| 2026-05-06 16:13 | 53.50901 | 9.74373 | 3001 ft | 148 kts | 51° |
| 2026-05-06 16:13 | 53.51552 | 9.75692 | 3004 ft | 145 kts | 51° |
| 2026-05-06 16:14 | 53.52193 | 9.76983 | 2994 ft | 144 kts | 51° |
| 2026-05-06 16:14 | 53.52833 | 9.78270 | 2885 ft | 143 kts | 51° |
| 2026-05-06 16:14 | 53.53468 | 9.79545 | 2726 ft | 142 kts | 51° |
| 2026-05-06 16:14 | 53.54098 | 9.80811 | 2566 ft | 141 kts | 51° |
| 2026-05-06 16:15 | 53.54725 | 9.82069 | 2365 ft | 140 kts | 51° |
| 2026-05-06 16:15 | 53.55347 | 9.83318 | 2167 ft | 139 kts | 51° |
| 2026-05-06 16:15 | 53.55968 | 9.84568 | 1976 ft | 139 kts | 50° |
| 2026-05-06 16:15 | 53.56580 | 9.85798 | 1793 ft | 138 kts | 50° |
| 2026-05-06 16:16 | 53.57197 | 9.87039 | 1599 ft | 138 kts | 50° |
| 2026-05-06 16:16 | 53.57783 | 9.88220 | 1417 ft | 127 kts | 50° |
| 2026-05-06 16:16 | 53.58345 | 9.89351 | 1234 ft | 126 kts | 50° |
| 2026-05-06 16:16 | 53.58911 | 9.90491 | 1044 ft | 128 kts | 51° |
| 2026-05-06 16:17 | 53.59485 | 9.91638 | 824 ft | 128 kts | 49° |
| 2026-05-06 16:17 | 53.60055 | 9.92792 | 651 ft | 130 kts | 50° |
| 2026-05-06 16:17 | 53.60629 | 9.93982 | 418 ft | 132 kts | 51° |
| 2026-05-06 16:17 | 53.61217 | 9.95158 | 331 ft | 132 kts | 49° |
| 2026-05-06 16:18 | 53.61816 | 9.96335 | 120 ft | 130 kts | 50° |
| 2026-05-06 16:18 | 53.62363 | 9.97471 | 45 ft | 114 kts | 51° |
| 2026-05-06 16:18 | 53.62793 | 9.98329 | 43 ft | 75 kts | 49° |
| 2026-05-06 16:18 | 53.63064 | 9.98876 | 46 ft | 58 kts | 50° |
| 2026-05-06 16:19 | 53.63347 | 9.99455 | 46 ft | 59 kts | 50° |
| 2026-05-06 16:19 | 53.63543 | 9.99856 | 50 ft | 29 kts | 52° |
| 2026-05-06 16:19 | 53.63531 | 10.00038 | 49 ft | 18 kts | 133° |
| 2026-05-06 16:19 | 53.63512 | 10.00068 | 49 ft | 0 kts | 137° |
| 2026-05-06 16:20 | 53.63510 | 10.00071 | 49 ft | 2 kts | 138° |
| 2026-05-06 16:20 | 53.63504 | 10.00080 | 49 ft | 0 kts | 139° |
| 2026-05-06 16:21 | 53.63486 | 10.00105 | 48 ft | 5 kts | 140° |
| 2026-05-06 16:21 | 53.63442 | 10.00164 | 48 ft | 9 kts | 146° |
| 2026-05-06 16:21 | 53.63409 | 10.00191 | 48 ft | 5 kts | 156° |
| 2026-05-06 16:21 | 53.63376 | 10.00231 | 48 ft | 6 kts | 126° |
| 2026-05-06 16:22 | 53.63372 | 10.00307 | 48 ft | 6 kts | 88° |
| 2026-05-06 16:22 | 53.63373 | 10.00323 | 48 ft | 2 kts | 89° |
| 2026-05-06 16:22 | 53.63373 | 10.00338 | 48 ft | 0 kts | 88° |